TAF Text Data
IDs:
Format:
Raw Decoded Include METAR

Data at: 0848 UTC 16 Oct 2018

KPVW 160835Z AUTO 05004KT 10SM -DZ OVC032 02/01 A3033 RMK AO2 T00220005

KPVW 160532Z 1606/1706 02010KT 6SM -SHRA BR SCT025 BKN040
  FM161200 03009KT P6SM BKN040